Time;durP1;ratioP1;P1;durP2;ratioP2;P2;SDS_P1;SDS_P2;PMS_P1;PMS_P2;Temp;Humidity;BMP_temperature;BMP_pressure;BME280_temperature;BME280_humidity;BME280_pressure;Samples;Min_cycle;Max_cycle;Signal;HPM_P1;HPM_P2
2022/03/08 00:02:07;;;;;;;12.52;6.78;;;2.30;99.90;;;;;;5049197;28;20082;-67
2022/03/08 00:04:33;;;;;;;12.80;6.85;;;2.20;99.90;;;;;;5050205;28;20065;-67
2022/03/08 00:06:59;;;;;;;13.15;6.45;;;2.30;99.90;;;;;;5048955;28;20081;-65
2022/03/08 00:09:24;;;;;;;10.65;7.10;;;2.30;99.90;;;;;;5050097;28;20601;-65
2022/03/08 00:11:50;;;;;;;11.07;6.45;;;2.30;99.90;;;;;;5048993;28;20370;-68
2022/03/08 00:14:15;;;;;;;12.10;6.78;;;2.20;99.90;;;;;;5050240;28;20036;-65
2022/03/08 00:16:41;;;;;;;11.95;6.50;;;2.10;99.90;;;;;;5050091;28;20064;-66
2022/03/08 00:19:06;;;;;;;13.50;6.70;;;2.10;99.90;;;;;;5050153;28;20116;-65
2022/03/08 00:21:32;;;;;;;10.88;5.85;;;2.20;99.90;;;;;;5049805;28;20339;-65
2022/03/08 00:23:58;;;;;;;12.45;6.53;;;2.20;99.90;;;;;;5049209;28;20040;-66
2022/03/08 00:26:23;;;;;;;11.20;6.80;;;2.10;99.90;;;;;;5048436;28;20041;-66
2022/03/08 00:28:49;;;;;;;14.50;7.35;;;2.10;99.90;;;;;;5049915;28;20127;-66
2022/03/08 00:31:15;;;;;;;12.23;7.07;;;2.00;99.90;;;;;;5049971;28;20114;-66
2022/03/08 00:33:41;;;;;;;15.90;7.28;;;2.00;99.90;;;;;;5047605;28;20124;-66
2022/03/08 00:36:08;;;;;;;12.68;6.75;;;2.00;99.90;;;;;;5049809;28;20401;-66
2022/03/08 00:38:34;;;;;;;11.55;6.75;;;1.90;99.90;;;;;;5050324;28;20037;-66
2022/03/08 00:41:00;;;;;;;13.00;6.28;;;1.90;99.90;;;;;;5055452;28;20097;-66
2022/03/08 00:43:26;;;;;;;12.38;6.43;;;1.80;99.90;;;;;;5054807;28;20053;-65
2022/03/08 00:45:51;;;;;;;11.30;6.32;;;1.90;99.90;;;;;;5048468;28;20102;-66
2022/03/08 00:48:17;;;;;;;19.92;7.25;;;1.70;99.90;;;;;;5049749;28;20048;-66
2022/03/08 00:50:42;;;;;;;18.90;8.20;;;1.70;99.90;;;;;;5048405;28;20535;-66
2022/03/08 00:53:08;;;;;;;15.85;7.85;;;1.70;99.90;;;;;;5048573;28;20440;-66
2022/03/08 00:55:35;;;;;;;12.07;7.47;;;1.70;99.90;;;;;;5048169;28;20044;-66
2022/03/08 00:58:02;;;;;;;11.57;7.15;;;1.60;99.90;;;;;;5048186;28;20409;-66
2022/03/08 01:00:29;;;;;;;11.63;6.55;;;1.40;99.90;;;;;;5049603;28;20041;-66
2022/03/08 01:02:56;;;;;;;11.90;6.30;;;1.50;99.90;;;;;;5048828;28;20439;-66
2022/03/08 01:05:21;;;;;;;11.65;6.60;;;1.50;99.90;;;;;;5048432;28;20037;-66
2022/03/08 01:07:48;;;;;;;11.25;6.55;;;1.50;99.90;;;;;;5049568;28;20041;-66
2022/03/08 01:10:18;;;;;;;10.57;6.43;;;1.50;99.90;;;;;;5049786;28;20045;-66
2022/03/08 01:12:45;;;;;;;13.25;6.03;;;1.50;99.90;;;;;;5049090;28;20044;-66
2022/03/08 01:15:12;;;;;;;13.38;7.10;;;1.50;99.90;;;;;;5049339;28;20119;-66
2022/03/08 01:17:37;;;;;;;9.82;6.78;;;1.40;99.90;;;;;;5049466;28;20489;-66
2022/03/08 01:20:06;;;;;;;12.18;6.68;;;1.20;99.90;;;;;;5053150;28;20029;-66
2022/03/08 01:22:32;;;;;;;14.18;7.00;;;1.30;99.90;;;;;;5052716;28;20536;-66
2022/03/08 01:24:57;;;;;;;10.85;6.35;;;1.30;99.90;;;;;;5062465;28;20068;-66
2022/03/08 01:27:23;;;;;;;11.68;7.03;;;1.30;99.90;;;;;;5073756;28;20053;-66
2022/03/08 01:29:48;;;;;;;11.07;7.30;;;1.40;99.90;;;;;;5069584;28;20048;-66
2022/03/08 01:32:14;;;;;;;14.30;7.65;;;1.40;99.90;;;;;;5055322;28;20394;-66
2022/03/08 01:34:39;;;;;;;10.68;6.72;;;1.40;99.90;;;;;;5054274;28;20674;-66
2022/03/08 01:37:05;;;;;;;12.38;7.22;;;1.40;99.90;;;;;;5053138;28;20047;-66
2022/03/08 01:39:31;;;;;;;15.98;7.15;;;1.30;99.90;;;;;;5052167;28;20037;-66
2022/03/08 01:41:56;;;;;;;12.27;7.30;;;1.30;99.90;;;;;;5052269;28;20044;-66
2022/03/08 01:44:22;;;;;;;17.65;7.85;;;1.30;99.90;;;;;;5053320;28;20124;-66
2022/03/08 01:46:48;;;;;;;14.77;7.40;;;1.30;99.90;;;;;;5052636;28;20130;-66
2022/03/08 01:49:14;;;;;;;13.38;6.95;;;1.30;99.90;;;;;;5051444;28;20147;-66
2022/03/08 01:51:42;;;;;;;11.40;6.95;;;1.30;99.90;;;;;;5051248;28;20401;-66
2022/03/08 01:54:08;;;;;;;15.10;7.50;;;1.30;99.90;;;;;;5051118;28;20152;-66
2022/03/08 01:56:33;;;;;;;15.88;8.35;;;1.40;99.90;;;;;;5052627;28;20056;-66
2022/03/08 01:59:00;;;;;;;13.63;8.00;;;1.30;99.90;;;;;;5057681;28;20041;-66
2022/03/08 02:01:26;;;;;;;15.55;8.10;;;1.30;99.90;;;;;;5058465;28;20041;-66
2022/03/08 02:03:52;;;;;;;12.98;7.60;;;1.40;99.90;;;;;;5053240;28;20036;-66
2022/03/08 02:06:17;;;;;;;12.30;7.00;;;1.40;99.90;;;;;;5052297;28;20067;-66
2022/03/08 02:08:43;;;;;;;13.40;7.47;;;1.40;99.90;;;;;;5052122;28;20123;-66
2022/03/08 02:11:09;;;;;;;15.95;7.70;;;1.40;99.90;;;;;;5052061;28;20048;-66
2022/03/08 02:13:35;;;;;;;15.80;8.18;;;1.40;99.90;;;;;;5051360;28;20439;-66
2022/03/08 02:16:00;;;;;;;15.95;8.55;;;1.40;99.90;;;;;;5051734;28;20053;-66
2022/03/08 02:18:26;;;;;;;16.17;8.32;;;1.40;99.90;;;;;;5052239;28;20033;-66
2022/03/08 02:20:51;;;;;;;16.55;8.40;;;1.40;99.90;;;;;;5051946;28;20045;-66
2022/03/08 02:23:17;;;;;;;14.50;7.70;;;1.40;99.90;;;;;;5049912;28;20110;-66
2022/03/08 02:25:43;;;;;;;13.88;8.05;;;1.30;99.90;;;;;;5051746;28;20192;-66
2022/03/08 02:28:08;;;;;;;16.30;8.32;;;1.30;99.90;;;;;;5052100;28;20040;-66
2022/03/08 02:30:34;;;;;;;14.80;7.93;;;1.30;99.90;;;;;;5050158;28;20040;-66
2022/03/08 02:32:59;;;;;;;16.92;8.32;;;1.30;99.90;;;;;;5052362;28;20094;-66
2022/03/08 02:35:29;;;;;;;16.10;9.18;;;1.30;99.90;;;;;;5053178;28;20117;-66
2022/03/08 02:37:58;;;;;;;13.02;8.38;;;1.20;99.90;;;;;;5052049;28;20048;-66
2022/03/08 02:40:31;;;;;;;14.32;7.75;;;1.30;99.90;;;;;;5051607;28;20485;-66
2022/03/08 02:42:57;;;;;;;19.33;9.00;;;1.30;99.90;;;;;;5049533;28;20117;-66
2022/03/08 02:45:24;;;;;;;14.88;8.35;;;1.30;99.90;;;;;;5049998;28;20052;-66
2022/03/08 02:47:50;;;;;;;15.15;9.07;;;1.30;99.90;;;;;;5051504;28;20041;-66
2022/03/08 02:50:17;;;;;;;18.80;8.70;;;1.20;99.90;;;;;;5050626;28;20187;-66
2022/03/08 02:52:44;;;;;;;14.63;8.55;;;1.20;99.90;;;;;;5050386;28;20472;-66
2022/03/08 02:55:11;;;;;;;18.52;9.65;;;1.10;99.90;;;;;;5051552;28;20620;-66
2022/03/08 02:57:40;;;;;;;15.40;8.52;;;1.20;99.90;;;;;;5052172;28;20120;-66
2022/03/08 03:00:08;;;;;;;18.67;9.35;;;1.10;99.90;;;;;;5073277;28;20036;-66
2022/03/08 03:02:34;;;;;;;16.45;8.15;;;1.20;99.90;;;;;;5072606;28;20021;-65
2022/03/08 03:05:00;;;;;;;19.98;9.98;;;1.10;99.90;;;;;;5056523;28;20032;-66
2022/03/08 03:07:26;;;;;;;17.92;9.35;;;1.10;99.90;;;;;;5051174;28;20052;-66
2022/03/08 03:09:52;;;;;;;17.05;8.90;;;1.10;99.90;;;;;;5051180;28;20033;-65
2022/03/08 03:12:18;;;;;;;15.32;8.20;;;1.00;99.90;;;;;;5049018;28;20173;-66
2022/03/08 03:14:43;;;;;;;15.63;8.95;;;1.00;99.90;;;;;;5051381;28;20041;-66
2022/03/08 03:17:09;;;;;;;16.45;8.93;;;1.00;99.90;;;;;;5051077;28;20037;-65
2022/03/08 03:19:36;;;;;;;18.48;9.25;;;0.90;99.90;;;;;;5054454;28;20124;-65
2022/03/08 03:22:02;;;;;;;16.20;10.40;;;1.00;99.90;;;;;;5058050;28;20090;-66
2022/03/08 03:24:27;;;;;;;17.98;9.25;;;1.00;99.90;;;;;;5052261;28;20458;-65
2022/03/08 03:26:53;;;;;;;14.90;8.93;;;0.90;99.90;;;;;;5050940;28;20128;-65
2022/03/08 03:29:18;;;;;;;16.52;9.23;;;0.90;99.90;;;;;;5050894;28;20123;-65
2022/03/08 03:31:44;;;;;;;17.80;9.70;;;0.90;99.90;;;;;;5049727;28;20075;-66
2022/03/08 03:34:09;;;;;;;18.05;9.82;;;0.90;99.90;;;;;;5050546;28;20044;-65
2022/03/08 03:36:36;;;;;;;17.92;9.65;;;1.00;99.90;;;;;;5050260;28;20077;-66
2022/03/08 03:39:02;;;;;;;18.10;9.00;;;0.90;99.90;;;;;;5050436;28;20036;-65
2022/03/08 03:41:28;;;;;;;18.13;9.82;;;0.90;99.90;;;;;;5049117;28;20396;-65
2022/03/08 03:43:53;;;;;;;16.65;9.32;;;0.90;99.90;;;;;;5050063;28;20096;-66
2022/03/08 03:46:19;;;;;;;18.40;9.38;;;0.80;99.90;;;;;;5050501;28;20416;-66
2022/03/08 03:48:45;;;;;;;18.00;9.93;;;0.90;99.90;;;;;;5050351;28;20486;-66
2022/03/08 03:51:11;;;;;;;17.17;9.95;;;0.80;99.90;;;;;;5048578;28;20048;-66
2022/03/08 03:53:37;;;;;;;20.08;11.50;;;0.80;99.90;;;;;;5048093;28;20049;-66
2022/03/08 03:56:02;;;;;;;18.45;11.05;;;0.80;99.90;;;;;;5050137;28;20127;-66
2022/03/08 03:58:28;;;;;;;22.50;11.00;;;0.80;99.90;;;;;;5050256;28;20036;-66
2022/03/08 04:00:54;;;;;;;17.63;10.40;;;0.70;99.90;;;;;;5048884;28;20117;-66
2022/03/08 04:03:19;;;;;;;18.98;10.15;;;0.80;99.90;;;;;;5049589;28;20040;-66
2022/03/08 04:05:45;;;;;;;18.33;10.65;;;0.80;99.90;;;;;;5050192;28;20378;-66
2022/03/08 04:08:11;;;;;;;20.92;11.13;;;0.80;99.90;;;;;;5049904;28;20167;-66
2022/03/08 04:10:37;;;;;;;19.08;10.38;;;0.80;99.90;;;;;;5050116;28;20040;-66
2022/03/08 04:13:03;;;;;;;19.88;11.27;;;0.80;99.90;;;;;;5048095;28;20148;-66
2022/03/08 04:15:29;;;;;;;21.98;10.75;;;0.70;99.90;;;;;;5049916;28;20049;-66
2022/03/08 04:17:55;;;;;;;19.15;11.07;;;0.60;99.90;;;;;;5049922;28;20041;-66
2022/03/08 04:20:20;;;;;;;23.73;12.43;;;0.70;99.90;;;;;;5048652;28;20116;-66
2022/03/08 04:22:46;;;;;;;20.98;10.88;;;0.60;99.90;;;;;;5048952;28;20124;-66
2022/03/08 04:25:12;;;;;;;22.52;12.15;;;0.70;99.90;;;;;;5048539;28;20378;-66
2022/03/08 04:27:38;;;;;;;18.35;9.88;;;0.70;99.90;;;;;;5050154;28;20043;-66
2022/03/08 04:30:06;;;;;;;19.13;10.88;;;0.70;99.90;;;;;;5050014;28;20044;-66
2022/03/08 04:32:31;;;;;;;22.00;11.68;;;0.70;99.90;;;;;;5049179;28;20083;-66
2022/03/08 04:34:57;;;;;;;18.05;10.45;;;0.70;99.90;;;;;;5063303;28;20033;-66
2022/03/08 04:37:23;;;;;;;22.58;10.40;;;0.60;99.90;;;;;;5072206;28;20037;-66
2022/03/08 04:39:48;;;;;;;20.13;11.85;;;0.60;99.90;;;;;;5064650;28;20132;-67
2022/03/08 04:42:14;;;;;;;21.60;10.93;;;0.60;99.90;;;;;;5059035;28;20064;-66
2022/03/08 04:44:39;;;;;;;19.85;11.43;;;0.60;99.90;;;;;;5059065;28;20029;-66
2022/03/08 04:47:05;;;;;;;22.25;12.50;;;0.70;99.90;;;;;;5051676;28;20057;-66
2022/03/08 04:49:31;;;;;;;21.30;11.38;;;0.70;99.90;;;;;;5049437;28;20072;-66
2022/03/08 04:51:56;;;;;;;21.67;11.45;;;0.70;99.90;;;;;;5049648;28;20136;-66
2022/03/08 04:54:22;;;;;;;21.10;11.93;;;0.70;99.90;;;;;;5052312;28;20041;-66
2022/03/08 04:56:47;;;;;;;22.58;12.48;;;0.60;99.90;;;;;;5054031;28;20052;-66
2022/03/08 04:59:13;;;;;;;24.70;12.05;;;0.70;99.90;;;;;;5052959;28;20114;-66
2022/03/08 05:01:38;;;;;;;22.40;11.63;;;0.60;99.90;;;;;;5053654;28;20409;-66
2022/03/08 05:04:04;;;;;;;23.73;13.23;;;0.70;99.90;;;;;;5053709;28;20478;-66
2022/03/08 05:06:30;;;;;;;24.80;13.15;;;0.60;99.90;;;;;;5053780;28;20564;-66
2022/03/08 05:08:57;;;;;;;27.10;12.55;;;0.60;99.90;;;;;;5053797;28;20256;-66
2022/03/08 05:11:22;;;;;;;20.52;12.20;;;0.60;99.90;;;;;;5053449;28;20101;-65
2022/03/08 05:13:48;;;;;;;26.95;13.30;;;0.60;99.90;;;;;;5052939;28;20659;-65
2022/03/08 05:16:13;;;;;;;27.40;12.43;;;0.60;99.90;;;;;;5053086;28;20044;-65
2022/03/08 05:18:39;;;;;;;22.45;13.18;;;0.60;99.90;;;;;;5053408;28;20120;-65
2022/03/08 05:21:04;;;;;;;23.00;11.45;;;0.60;99.90;;;;;;5052098;28;20112;-65
2022/03/08 05:23:30;;;;;;;23.48;12.82;;;0.60;99.90;;;;;;5052470;28;20045;-66
2022/03/08 05:25:56;;;;;;;25.15;11.45;;;0.60;99.90;;;;;;5053019;28;20033;-66
2022/03/08 05:28:21;;;;;;;22.05;12.32;;;0.60;99.90;;;;;;5053478;28;20378;-65
2022/03/08 05:30:47;;;;;;;22.45;12.38;;;0.60;99.90;;;;;;5053014;28;20136;-66
2022/03/08 05:33:12;;;;;;;22.17;10.98;;;0.60;99.90;;;;;;5052241;28;20053;-66
2022/03/08 05:35:38;;;;;;;21.05;11.75;;;0.60;99.90;;;;;;5051446;28;20072;-66
2022/03/08 05:38:04;;;;;;;21.65;11.57;;;0.60;99.90;;;;;;5052766;28;20444;-65
2022/03/08 05:40:30;;;;;;;25.92;12.50;;;0.70;99.90;;;;;;5051077;28;20040;-66
2022/03/08 05:42:55;;;;;;;22.17;12.00;;;0.60;99.90;;;;;;5051748;28;20409;-66
2022/03/08 05:45:21;;;;;;;21.67;11.52;;;0.60;99.90;;;;;;5050855;28;20044;-65
2022/03/08 05:47:47;;;;;;;19.50;12.05;;;0.60;99.90;;;;;;5052708;28;20520;-65
2022/03/08 05:50:13;;;;;;;22.55;12.10;;;0.60;99.90;;;;;;5050931;28;20399;-66
2022/03/08 05:52:39;;;;;;;22.90;12.75;;;0.60;99.90;;;;;;5049608;28;20052;-66
2022/03/08 05:55:05;;;;;;;24.00;12.55;;;0.60;99.90;;;;;;5041545;28;20037;-66
2022/03/08 05:57:31;;;;;;;21.92;11.70;;;0.60;99.90;;;;;;5042349;28;20053;-65
2022/03/08 05:59:57;;;;;;;24.95;12.18;;;0.60;99.90;;;;;;5050577;28;20087;-65
2022/03/08 06:02:22;;;;;;;22.10;12.02;;;0.50;99.90;;;;;;5049843;28;20037;-66
2022/03/08 06:04:48;;;;;;;23.65;12.43;;;0.60;99.90;;;;;;5054765;28;20044;-65
2022/03/08 06:07:14;;;;;;;20.48;11.65;;;0.60;99.90;;;;;;5058920;28;20412;-65
2022/03/08 06:09:39;;;;;;;20.35;11.50;;;0.50;99.90;;;;;;5052772;28;20041;-65
2022/03/08 06:12:06;;;;;;;22.13;12.68;;;0.50;99.90;;;;;;5070589;28;20096;-65
2022/03/08 06:14:31;;;;;;;21.70;10.73;;;0.50;99.90;;;;;;5072049;28;20053;-65
2022/03/08 06:16:57;;;;;;;22.77;12.50;;;0.50;99.90;;;;;;5057363;28;20083;-65
2022/03/08 06:19:24;;;;;;;23.90;11.98;;;0.50;99.90;;;;;;5051910;28;20083;-65
2022/03/08 06:21:51;;;;;;;19.70;12.27;;;0.50;99.90;;;;;;5051032;28;20416;-66
2022/03/08 06:24:17;;;;;;;23.20;12.13;;;0.50;99.90;;;;;;5051490;28;20430;-66
2022/03/08 06:26:42;;;;;;;20.77;11.45;;;0.60;99.90;;;;;;5052190;28;20045;-66
2022/03/08 06:29:09;;;;;;;21.95;12.05;;;0.50;99.90;;;;;;5051639;28;20464;-66
2022/03/08 06:31:35;;;;;;;21.50;11.90;;;0.40;99.90;;;;;;5051269;28;20508;-66
2022/03/08 06:34:00;;;;;;;25.23;11.60;;;0.50;99.90;;;;;;5051067;28;20056;-66
2022/03/08 06:36:26;;;;;;;21.27;11.82;;;0.50;99.90;;;;;;5051372;28;20359;-66
2022/03/08 06:38:51;;;;;;;20.30;12.50;;;0.50;99.90;;;;;;5051383;28;20045;-66
2022/03/08 06:41:17;;;;;;;21.40;11.13;;;0.50;99.90;;;;;;5051347;28;20040;-66
2022/03/08 06:43:42;;;;;;;24.42;12.25;;;0.60;99.90;;;;;;5050606;28;20479;-66
2022/03/08 06:46:08;;;;;;;23.45;11.90;;;0.60;99.90;;;;;;5051276;28;20037;-66
2022/03/08 06:48:35;;;;;;;23.55;12.32;;;0.60;99.90;;;;;;5051651;28;20041;-66
2022/03/08 06:51:01;;;;;;;24.52;13.07;;;0.60;99.90;;;;;;5049799;28;20037;-66
2022/03/08 06:53:26;;;;;;;24.05;13.13;;;0.70;99.90;;;;;;5050972;28;20025;-66
2022/03/08 06:55:52;;;;;;;19.88;11.88;;;0.70;99.90;;;;;;5051566;28;20068;-66
2022/03/08 06:58:17;;;;;;;25.27;13.00;;;0.70;99.90;;;;;;5051710;28;20147;-66
2022/03/08 07:00:43;;;;;;;21.58;12.50;;;0.90;99.90;;;;;;5056272;28;20476;-66
2022/03/08 07:03:08;;;;;;;21.38;12.45;;;0.90;99.90;;;;;;5070654;28;20040;-65
2022/03/08 07:05:36;;;;;;;21.02;12.57;;;1.00;99.90;;;;;;5068490;28;20032;-65
2022/03/08 07:08:02;;;;;;;19.42;10.75;;;1.20;99.90;;;;;;5049777;28;20045;-66
2022/03/08 07:10:27;;;;;;;21.05;11.88;;;1.20;99.90;;;;;;5078354;28;20512;-66
2022/03/08 07:12:53;;;;;;;20.77;12.35;;;1.20;99.90;;;;;;5090265;28;20043;-66
2022/03/08 07:15:18;;;;;;;24.00;11.88;;;1.30;99.90;;;;;;5089570;28;20049;-65
2022/03/08 07:17:47;;;;;;;20.55;12.23;;;1.40;99.90;;;;;;5090445;28;20040;-65
2022/03/08 07:20:14;;;;;;;27.23;12.43;;;1.50;99.90;;;;;;5090379;28;20055;-66
2022/03/08 07:22:40;;;;;;;24.30;11.88;;;1.50;99.90;;;;;;5075878;28;20042;-66
2022/03/08 07:25:07;;;;;;;21.02;12.00;;;1.60;99.90;;;;;;5091946;28;20044;-66
2022/03/08 07:27:33;;;;;;;19.88;12.30;;;1.70;99.90;;;;;;5093549;28;20085;-66
2022/03/08 07:29:58;;;;;;;22.35;12.35;;;1.80;99.90;;;;;;5090451;28;20052;-66
2022/03/08 07:32:24;;;;;;;23.00;11.95;;;1.90;99.90;;;;;;5090286;28;20122;-66
2022/03/08 07:34:49;;;;;;;20.77;11.43;;;2.00;99.90;;;;;;5090763;28;20427;-66
2022/03/08 07:37:15;;;;;;;22.48;12.13;;;2.00;99.90;;;;;;5090898;28;20035;-66
2022/03/08 07:39:41;;;;;;;19.27;10.65;;;2.10;99.90;;;;;;5090063;28;20048;-65
2022/03/08 07:42:07;;;;;;;23.83;12.38;;;2.20;99.90;;;;;;5106239;28;20100;-65
2022/03/08 07:44:32;;;;;;;21.05;11.38;;;2.20;99.90;;;;;;5110142;28;20064;-66
2022/03/08 07:46:59;;;;;;;20.35;12.07;;;2.30;99.90;;;;;;5093873;28;20613;-66
2022/03/08 07:49:25;;;;;;;19.67;10.98;;;2.40;99.90;;;;;;5090688;28;20048;-66
2022/03/08 07:51:51;;;;;;;17.90;11.05;;;2.40;99.90;;;;;;5089471;28;20039;-66
2022/03/08 07:54:17;;;;;;;19.13;11.38;;;2.60;99.90;;;;;;5090426;28;20090;-66
2022/03/08 07:56:43;;;;;;;22.17;11.15;;;2.60;99.90;;;;;;5090485;28;20047;-67
2022/03/08 07:59:10;;;;;;;19.05;10.65;;;2.70;99.90;;;;;;5090198;28;20048;-67
2022/03/08 08:01:35;;;;;;;19.05;11.00;;;2.70;99.90;;;;;;5065135;28;20032;-67
2022/03/08 08:04:01;;;;;;;20.75;11.35;;;2.80;99.90;;;;;;5061381;28;20110;-66
2022/03/08 08:06:26;;;;;;;20.55;10.93;;;2.90;99.90;;;;;;5060323;28;20028;-66
2022/03/08 08:08:52;;;;;;;26.25;11.95;;;3.00;99.90;;;;;;5058807;28;20126;-67
2022/03/08 08:11:18;;;;;;;21.27;12.00;;;3.00;99.90;;;;;;5059809;28;20116;-66
2022/03/08 08:13:43;;;;;;;22.70;12.25;;;3.10;99.90;;;;;;5059055;28;20037;-66
2022/03/08 08:16:09;;;;;;;17.85;10.90;;;3.10;99.90;;;;;;5059854;28;20091;-67
2022/03/08 08:18:34;;;;;;;20.60;11.60;;;3.20;99.90;;;;;;5058711;28;20435;-67
2022/03/08 08:21:01;;;;;;;20.85;11.40;;;3.30;99.90;;;;;;5061037;28;20032;-67
2022/03/08 08:23:27;;;;;;;18.80;10.65;;;3.40;99.90;;;;;;5059202;28;20041;-67
2022/03/08 08:25:53;;;;;;;18.77;11.25;;;3.50;99.90;;;;;;5062511;28;20404;-67
2022/03/08 08:28:19;;;;;;;20.80;10.55;;;3.60;99.90;;;;;;5059976;28;20051;-66
2022/03/08 08:30:44;;;;;;;15.93;10.35;;;3.70;99.90;;;;;;5063793;28;20512;-67
2022/03/08 08:33:10;;;;;;;15.05;10.40;;;3.80;99.90;;;;;;5052735;28;20041;-67
2022/03/08 08:35:36;;;;;;;20.92;11.07;;;3.90;99.90;;;;;;5053841;28;20043;-67
2022/03/08 08:38:01;;;;;;;17.00;10.60;;;3.90;99.90;;;;;;5054151;28;20049;-67
2022/03/08 08:40:28;;;;;;;18.48;9.73;;;4.10;99.90;;;;;;5052542;28;20044;-66
2022/03/08 08:42:53;;;;;;;18.90;10.00;;;4.20;99.90;;;;;;5053076;28;20043;-67
2022/03/08 08:45:19;;;;;;;23.20;11.77;;;4.20;99.90;;;;;;5053724;28;20123;-66
2022/03/08 08:47:45;;;;;;;15.80;10.02;;;4.30;99.90;;;;;;5056638;28;20032;-71
2022/03/08 08:50:11;;;;;;;19.88;11.00;;;4.30;99.90;;;;;;5061294;28;20048;-70
2022/03/08 08:52:37;;;;;;;20.52;10.27;;;4.50;99.90;;;;;;5060993;28;20040;-71
2022/03/08 08:55:03;;;;;;;15.85;9.88;;;4.50;99.90;;;;;;5061493;28;20466;-71
2022/03/08 08:57:29;;;;;;;13.60;8.60;;;4.60;99.90;;;;;;5059708;28;20066;-71
2022/03/08 08:59:55;;;;;;;16.02;10.25;;;4.70;99.90;;;;;;5060789;28;20115;-67
2022/03/08 09:02:20;;;;;;;16.13;9.38;;;4.80;99.90;;;;;;5064054;28;20039;-70
2022/03/08 09:04:46;;;;;;;12.43;9.07;;;4.80;99.90;;;;;;5071168;28;20486;-67
2022/03/08 09:07:12;;;;;;;16.95;10.23;;;4.80;99.90;;;;;;5078395;28;20075;-67
2022/03/08 09:09:37;;;;;;;17.80;10.02;;;4.90;99.90;;;;;;5070867;28;20487;-67
2022/03/08 09:12:03;;;;;;;15.60;10.30;;;4.90;99.90;;;;;;5060973;28;20041;-67
2022/03/08 09:14:29;;;;;;;15.82;10.02;;;5.00;99.90;;;;;;5058327;28;20055;-67
2022/03/08 09:16:55;;;;;;;18.02;9.98;;;5.10;99.90;;;;;;5051634;28;20037;-67
2022/03/08 09:19:21;;;;;;;16.20;10.20;;;5.20;99.90;;;;;;5053246;28;20045;-67
2022/03/08 09:21:47;;;;;;;16.65;10.40;;;5.30;99.90;;;;;;5050885;28;20120;-67
2022/03/08 09:24:12;;;;;;;13.95;9.38;;;5.40;99.90;;;;;;5053145;28;20108;-67
2022/03/08 09:26:38;;;;;;;14.65;9.57;;;5.40;99.90;;;;;;5053041;28;20493;-67
2022/03/08 09:29:03;;;;;;;15.30;9.35;;;5.50;99.90;;;;;;5060904;28;20512;-67
2022/03/08 09:31:29;;;;;;;17.63;8.90;;;5.50;99.90;;;;;;5050971;28;20125;-67
2022/03/08 09:33:54;;;;;;;14.32;9.55;;;5.60;99.90;;;;;;5050719;28;20052;-67
2022/03/08 09:36:20;;;;;;;13.43;8.77;;;5.60;99.90;;;;;;5057448;28;20033;-66
2022/03/08 09:38:46;;;;;;;12.75;8.90;;;5.70;99.90;;;;;;5062927;28;20032;-67
2022/03/08 09:41:12;;;;;;;14.30;9.77;;;5.70;99.90;;;;;;5070597;28;20440;-67
2022/03/08 09:43:38;;;;;;;15.68;10.45;;;5.80;99.90;;;;;;5072153;28;20116;-67
2022/03/08 09:46:05;;;;;;;13.93;9.43;;;5.90;99.90;;;;;;5072967;28;20065;-67
2022/03/08 09:48:31;;;;;;;13.88;8.77;;;5.90;99.90;;;;;;5074491;28;20067;-67
2022/03/08 09:51:01;;;;;;;14.27;8.98;;;6.00;99.90;;;;;;5075812;28;20050;-67
2022/03/08 09:53:29;;;;;;;14.95;9.25;;;6.10;99.90;;;;;;5071941;28;20062;-67
2022/03/08 09:56:03;;;;;;;12.77;9.02;;;6.10;99.90;;;;;;5072451;28;20040;-67
2022/03/08 09:58:29;;;;;;;14.48;9.25;;;6.20;99.90;;;;;;5072476;28;20127;-67
2022/03/08 10:00:59;;;;;;;11.77;8.20;;;6.30;99.90;;;;;;5072795;28;20036;-67
2022/03/08 10:03:36;;;;;;;20.38;9.52;;;6.30;98.60;;;;;;5071513;28;20049;-67
2022/03/08 10:06:03;;;;;;;13.80;9.15;;;6.30;99.90;;;;;;5071272;28;20365;-67
2022/03/08 10:08:29;;;;;;;14.48;9.20;;;6.40;99.90;;;;;;5072465;28;20045;-67
2022/03/08 10:10:59;;;;;;;16.98;8.13;;;6.50;99.90;;;;;;5072101;28;20156;-67
2022/03/08 10:13:30;;;;;;;12.52;8.15;;;6.60;98.10;;;;;;5070468;28;20036;-67
2022/03/08 10:16:26;;;;;;;11.25;7.55;;;6.60;97.70;;;;;;5071000;28;20036;-66
2022/03/08 10:18:53;;;;;;;11.52;7.25;;;6.70;95.20;;;;;;5070920;28;20056;-68
2022/03/08 10:21:32;;;;;;;11.63;7.20;;;6.80;95.50;;;;;;5071835;28;20094;-68
2022/03/08 10:24:19;;;;;;;11.50;6.93;;;6.90;84.20;;;;;;5072241;28;20037;-69
2022/03/08 10:26:56;;;;;;;10.20;7.00;;;7.10;91.90;;;;;;5086899;28;20067;-67
2022/03/08 10:29:28;;;;;;;9.88;7.25;;;7.10;92.80;;;;;;5080168;28;20079;-68
2022/03/08 10:32:22;;;;;;;10.32;6.45;;;7.00;83.80;;;;;;5070686;28;20810;-68
2022/03/08 10:34:54;;;;;;;11.68;6.10;;;7.10;75.90;;;;;;5029015;28;20135;-69
2022/03/08 10:37:23;;;;;;;9.45;5.97;;;7.20;70.50;;;;;;5029003;28;20048;-69
2022/03/08 10:39:53;;;;;;;9.30;6.25;;;7.20;71.30;;;;;;5028968;28;20061;-68
2022/03/08 10:42:20;;;;;;;7.45;5.35;;;7.30;81.00;;;;;;5028238;28;20083;-69
2022/03/08 10:44:46;;;;;;;9.60;6.28;;;7.40;69.90;;;;;;5012627;28;20081;-69
2022/03/08 10:47:13;;;;;;;9.93;5.57;;;7.40;69.20;;;;;;5028735;28;20076;-69
2022/03/08 10:49:56;;;;;;;8.52;6.10;;;7.40;71.10;;;;;;5012504;28;20081;-69
2022/03/08 10:52:26;;;;;;;;;;;7.40;66.80;;;;;;5027720;28;20111;-69
2022/03/08 10:54:51;;;;;;;7.78;5.43;;;7.50;74.20;;;;;;5028831;28;19967;-69
2022/03/08 10:57:17;;;;;;;7.45;5.50;;;7.70;75.80;;;;;;5012406;28;20041;-69
2022/03/08 10:59:54;;;;;;;8.43;5.88;;;7.70;62.90;;;;;;5032968;28;20468;-69
2022/03/08 11:02:21;;;;;;;10.60;6.07;;;7.70;65.60;;;;;;5030632;28;20042;-69
2022/03/08 11:04:47;;;;;;;5.05;3.85;;;7.80;67.10;;;;;;5028964;28;20053;-74
2022/03/08 11:07:13;;;;;;;8.50;5.85;;;8.60;74.80;;;;;;5012667;28;20049;-73
2022/03/08 11:09:39;;;;;;;8.23;5.53;;;8.30;79.60;;;;;;5012609;28;20049;-74
2022/03/08 11:12:05;;;;;;;8.02;5.78;;;8.20;67.60;;;;;;5061164;28;20059;-73
2022/03/08 11:14:31;;;;;;;8.00;5.30;;;8.20;65.60;;;;;;5053600;28;20390;-73
2022/03/08 11:16:57;;;;;;;8.38;5.75;;;8.30;62.70;;;;;;5070174;28;20040;-73
2022/03/08 11:19:26;;;;;;;9.32;5.25;;;8.20;63.90;;;;;;5070247;28;20032;-73
2022/03/08 11:21:54;;;;;;;9.20;5.22;;;8.30;67.30;;;;;;5069476;28;20475;-74
2022/03/08 11:24:20;;;;;;;7.80;4.80;;;8.40;63.40;;;;;;5070196;28;20036;-73
2022/03/08 11:26:47;;;;;;;8.32;4.90;;;8.40;58.90;;;;;;5053538;28;20090;-73
2022/03/08 11:29:14;;;;;;;9.73;4.28;;;8.30;59.90;;;;;;5070586;28;20044;-74
2022/03/08 11:31:42;;;;;;;6.22;4.32;;;8.40;56.90;;;;;;5068584;28;20044;-74
2022/03/08 11:34:26;;;;;;;7.35;4.22;;;8.40;59.00;;;;;;5069159;28;20040;-74
2022/03/08 11:37:00;;;;;;;6.93;4.40;;;8.40;58.50;;;;;;5069811;28;20044;-74
2022/03/08 11:39:30;;;;;;;9.15;5.10;;;8.50;58.10;;;;;;5070843;28;20527;-68
2022/03/08 11:42:27;;;;;;;7.65;5.05;;;8.50;56.60;;;;;;5069823;28;20041;-69
2022/03/08 11:44:55;;;;;;;5.47;3.88;;;8.50;57.50;;;;;;5085072;28;20020;-68
2022/03/08 11:47:21;;;;;;;5.85;4.47;;;8.50;56.00;;;;;;5093257;28;20048;-68
2022/03/08 11:49:52;;;;;;;8.90;4.32;;;8.60;57.10;;;;;;5076052;28;20044;-68
2022/03/08 11:52:20;;;;;;;8.25;4.00;;;8.70;58.70;;;;;;5070143;28;20120;-68
2022/03/08 11:54:53;;;;;;;6.38;4.63;;;8.70;56.60;;;;;;5070376;28;20079;-69
2022/03/08 11:57:47;;;;;;;8.40;5.15;;;8.70;57.10;;;;;;5070452;28;20472;-68
2022/03/08 12:00:15;;;;;;;9.85;3.95;;;8.70;56.40;;;;;;5052495;28;20079;-68
2022/03/08 12:02:46;;;;;;;9.07;4.45;;;8.80;56.30;;;;;;5069372;28;20124;-68
2022/03/08 12:05:47;;;;;;;6.32;4.45;;;8.90;56.70;;;;;;5068689;28;20105;-68
2022/03/08 12:08:28;;;;;;;8.77;4.40;;;8.80;56.60;;;;;;5072882;28;20036;-69
2022/03/08 12:11:00;;;;;;;12.88;4.70;;;9.00;58.50;;;;;;5082184;28;20056;-68
2022/03/08 12:13:28;;;;;;;5.65;4.43;;;9.00;60.00;;;;;;5072162;28;20037;-66
2022/03/08 12:16:08;;;;;;;5.88;4.40;;;9.10;57.60;;;;;;5070318;28;20037;-66
2022/03/08 12:18:38;;;;;;;6.55;3.92;;;9.10;57.20;;;;;;5070090;28;20048;-66
2022/03/08 12:21:16;;;;;;;5.68;4.22;;;9.20;57.20;;;;;;5070346;28;20040;-67
2022/03/08 12:24:08;;;;;;;5.15;3.97;;;9.10;54.50;;;;;;5069361;28;20033;-66
2022/03/08 12:26:38;;;;;;;6.50;4.05;;;9.20;55.00;;;;;;5069008;28;20128;-67
2022/03/08 12:29:22;;;;;;;7.47;4.28;;;9.20;54.10;;;;;;5070474;28;20090;-67
2022/03/08 12:32:14;;;;;;;6.97;4.13;;;9.20;54.40;;;;;;5067821;28;20135;-67
2022/03/08 12:34:48;;;;;;;7.97;4.03;;;9.20;54.30;;;;;;5069997;28;20101;-67
2022/03/08 12:37:21;;;;;;;5.82;4.07;;;9.20;53.40;;;;;;5069984;28;20130;-67
2022/03/08 12:40:03;;;;;;;5.68;3.63;;;9.30;56.10;;;;;;5069916;28;20032;-72
2022/03/08 12:42:52;;;;;;;10.55;4.53;;;9.40;54.10;;;;;;5068886;28;20147;-72
2022/03/08 12:45:27;;;;;;;6.32;3.92;;;9.40;54.00;;;;;;5069343;28;20047;-72
2022/03/08 12:47:55;;;;;;;6.55;4.38;;;9.40;54.90;;;;;;5069283;28;20052;-72